createdAt,value
2023-02-09T00:00:12.936Z,82.60
2023-02-09T00:01:12.908Z,82.81
2023-02-09T00:02:13.004Z,83.02
2023-02-09T00:03:12.899Z,83.02
2023-02-09T00:04:12.899Z,82.71
2023-02-09T00:05:12.903Z,82.67
2023-02-09T00:06:12.864Z,82.14
2023-02-09T00:07:12.818Z,81.93
2023-02-09T00:08:12.841Z,82.14
2023-02-09T00:09:12.813Z,82.35
2023-02-09T00:10:12.812Z,82.29
2023-02-09T00:11:12.767Z,82.04
2023-02-09T00:12:12.788Z,82.04
2023-02-09T00:13:12.753Z,81.83
2023-02-09T00:14:12.801Z,81.73
2023-02-09T00:15:12.729Z,81.83
2023-02-09T00:16:12.756Z,81.73
2023-02-09T00:17:12.687Z,81.51
2023-02-09T00:18:12.714Z,81.20
2023-02-09T00:19:12.665Z,80.88
2023-02-09T00:20:12.707Z,81.30
2023-02-09T00:21:12.652Z,81.83
2023-02-09T00:22:12.653Z,82.14
2023-02-09T00:23:12.622Z,82.18
2023-02-09T00:24:12.637Z,82.25
2023-02-09T00:25:12.604Z,82.18
2023-02-09T00:26:12.624Z,82.29
2023-02-09T00:27:12.562Z,82.60
2023-02-09T00:28:12.614Z,82.92
2023-02-09T00:29:12.542Z,83.06
2023-02-09T00:30:12.579Z,83.06
2023-02-09T00:31:12.638Z,83.27
2023-02-09T00:32:12.586Z,83.48
2023-02-09T00:33:12.497Z,83.37
2023-02-09T00:34:12.517Z,83.48
2023-02-09T00:35:12.490Z,83.59
2023-02-09T00:36:12.492Z,83.59
2023-02-09T00:37:12.440Z,83.48
2023-02-09T00:38:12.476Z,83.37
2023-02-09T00:39:12.442Z,83.48
2023-02-09T00:40:12.446Z,83.76
2023-02-09T00:41:12.412Z,83.76
2023-02-09T00:42:12.377Z,83.76
2023-02-09T00:43:12.396Z,83.54
2023-02-09T00:44:12.349Z,83.23
2023-02-09T00:45:12.387Z,83.02
2023-02-09T00:46:12.374Z,83.02
2023-02-09T00:47:12.342Z,83.23
2023-02-09T00:48:12.301Z,83.23
2023-02-09T00:49:12.306Z,83.13
2023-02-09T00:50:12.275Z,83.54
2023-02-09T00:51:12.315Z,84.32
2023-02-09T00:52:12.257Z,84.64
2023-02-09T00:53:12.284Z,84.64
2023-02-09T00:54:12.214Z,84.74
2023-02-09T00:55:12.234Z,84.64
2023-02-09T00:56:12.200Z,84.42
2023-02-09T00:57:12.203Z,84.22
2023-02-09T00:58:12.182Z,84.22
2023-02-09T00:59:12.210Z,84.22
2023-02-09T01:00:12.156Z,84.32
2023-02-09T01:01:12.278Z,84.32
2023-02-09T01:02:12.153Z,84.32
2023-02-09T01:03:12.140Z,84.32
2023-02-09T01:04:12.344Z,84.53
2023-02-09T01:05:12.103Z,84.53
2023-02-09T01:06:12.061Z,84.32
2023-02-09T01:07:12.088Z,84.11
2023-02-09T01:08:12.049Z,84.22
2023-02-09T01:09:12.093Z,84.53
2023-02-09T01:10:12.043Z,84.64
2023-02-09T01:11:12.042Z,84.53
2023-02-09T01:12:11.974Z,84.42
2023-02-09T01:13:12.017Z,84.28
2023-02-09T01:14:11.988Z,84.18
2023-02-09T01:15:11.976Z,84.08
2023-02-09T01:16:11.956Z,83.90
2023-02-09T01:17:11.958Z,83.90
2023-02-09T01:18:11.920Z,84.11
2023-02-09T01:19:11.953Z,84.32
2023-02-09T01:20:11.908Z,84.64
2023-02-09T01:21:11.904Z,85.06
2023-02-09T01:22:11.856Z,85.27
2023-02-09T01:23:11.891Z,85.27
2023-02-09T01:24:11.817Z,85.27
2023-02-09T01:25:11.864Z,85.27
2023-02-09T01:26:11.821Z,85.27
2023-02-09T01:27:11.819Z,85.06
2023-02-09T01:28:11.842Z,84.95
2023-02-09T01:29:11.816Z,84.95
2023-02-09T01:30:11.766Z,84.95
2023-02-09T01:31:11.864Z,84.95
2023-02-09T01:32:11.780Z,84.84
2023-02-09T01:33:11.758Z,84.84
2023-02-09T01:34:11.711Z,84.89
2023-02-09T01:35:11.728Z,84.84
2023-02-09T01:36:11.682Z,84.99
2023-02-09T01:37:11.726Z,84.99
2023-02-09T01:38:11.670Z,85.10
2023-02-09T01:39:11.662Z,85.31
2023-02-09T01:40:11.660Z,85.41
2023-02-09T01:41:11.653Z,85.52
2023-02-09T01:42:11.620Z,85.73
2023-02-09T01:43:11.637Z,85.83
2023-02-09T01:44:11.594Z,86.00
2023-02-09T01:45:11.588Z,85.90
2023-02-09T01:46:11.583Z,85.69
2023-02-09T01:47:11.571Z,85.58
2023-02-09T01:48:11.557Z,85.69
2023-02-09T01:49:11.563Z,85.27
2023-02-09T01:50:11.565Z,84.74
2023-02-09T01:51:11.561Z,84.42
2023-02-09T01:52:11.501Z,84.32
2023-02-09T01:53:11.492Z,84.11
2023-02-09T01:54:11.453Z,84.15
2023-02-09T01:55:11.477Z,84.47
2023-02-09T01:56:11.448Z,84.78
2023-02-09T01:57:11.439Z,85.03
2023-02-09T01:58:11.412Z,85.55
2023-02-09T01:59:11.413Z,85.97
2023-02-09T02:00:11.389Z,86.29
2023-02-09T02:01:11.479Z,86.51
2023-02-09T02:02:11.375Z,86.40
2023-02-09T02:03:11.364Z,86.40
2023-02-09T02:04:11.350Z,86.40
2023-02-09T02:05:11.339Z,86.51
2023-02-09T02:06:11.296Z,86.40
2023-02-09T02:07:11.328Z,86.40
2023-02-09T02:08:11.298Z,86.51
2023-02-09T02:09:11.309Z,86.61
2023-02-09T02:10:11.254Z,86.71
2023-02-09T02:11:11.264Z,86.51
2023-02-09T02:12:11.222Z,86.08
2023-02-09T02:13:11.262Z,85.97
2023-02-09T02:14:11.207Z,85.97
2023-02-09T02:15:11.278Z,86.08
2023-02-09T02:16:11.272Z,86.29
2023-02-09T02:17:11.181Z,86.40
2023-02-09T02:18:11.187Z,85.97
2023-02-09T02:19:11.164Z,85.80
2023-02-09T02:20:11.128Z,85.70
2023-02-09T02:21:11.139Z,85.91
2023-02-09T02:22:11.088Z,86.12
2023-02-09T02:23:11.109Z,86.44
2023-02-09T02:24:11.093Z,86.76
2023-02-09T02:25:11.084Z,87.07
2023-02-09T02:26:11.038Z,87.28
2023-02-09T02:27:11.043Z,87.49
2023-02-09T02:28:11.058Z,87.38
2023-02-09T02:29:11.075Z,87.07
2023-02-09T02:30:11.005Z,86.96
2023-02-09T02:31:11.108Z,86.96
2023-02-09T02:32:10.973Z,87.18
2023-02-09T02:33:10.974Z,86.96
2023-02-09T02:34:10.952Z,86.65
2023-02-09T02:35:11.013Z,86.44
2023-02-09T02:36:10.911Z,86.33
2023-02-09T02:37:10.920Z,86.02
2023-02-09T02:38:10.887Z,86.02
2023-02-09T02:39:10.906Z,86.22
2023-02-09T02:40:10.914Z,86.22
2023-02-09T02:41:10.875Z,86.22
2023-02-09T02:42:10.833Z,86.33
2023-02-09T02:43:10.860Z,86.44
2023-02-09T02:44:10.825Z,86.54
2023-02-09T02:45:10.832Z,86.54
2023-02-09T02:46:10.806Z,86.44
2023-02-09T02:47:10.831Z,86.37
2023-02-09T02:48:10.752Z,86.37
2023-02-09T02:49:10.792Z,86.37
2023-02-09T02:50:10.751Z,86.37
2023-02-09T02:51:10.764Z,86.27
2023-02-09T02:52:10.737Z,86.27
2023-02-09T02:53:10.728Z,86.37
2023-02-09T02:54:10.699Z,86.58
2023-02-09T02:55:10.713Z,86.90
2023-02-09T02:56:10.692Z,87.00
2023-02-09T02:57:10.683Z,87.21
2023-02-09T02:58:10.633Z,87.00
2023-02-09T02:59:10.669Z,86.90
2023-02-09T03:00:10.651Z,86.69
2023-02-09T03:01:10.667Z,86.58
2023-02-09T03:02:10.581Z,86.69
2023-02-09T03:03:10.595Z,86.79
2023-02-09T03:04:10.591Z,86.90
2023-02-09T03:05:10.624Z,86.83
2023-02-09T03:06:10.556Z,86.83
2023-02-09T03:07:10.549Z,86.83
2023-02-09T03:08:10.523Z,86.83
2023-02-09T03:09:10.539Z,86.94
2023-02-09T03:10:10.511Z,87.15
2023-02-09T03:11:10.556Z,87.25
2023-02-09T03:12:10.472Z,87.25
2023-02-09T03:13:10.484Z,87.04
2023-02-09T03:14:10.436Z,87.04
2023-02-09T03:19:51.269Z,88.20
2023-02-09T03:20:52.259Z,88.41
2023-02-09T03:21:52.256Z,88.52
2023-02-09T03:22:52.196Z,88.31
2023-02-09T03:23:52.226Z,88.10
2023-02-09T03:24:52.167Z,88.03
2023-02-09T03:25:52.181Z,87.93
2023-02-09T03:26:52.147Z,88.03
2023-02-09T03:27:52.232Z,88.10
2023-02-09T03:28:52.120Z,88.10
2023-02-09T03:29:52.140Z,88.10
2023-02-09T03:30:52.206Z,87.99
2023-02-09T03:31:52.206Z,88.10
2023-02-09T03:32:52.078Z,87.99
2023-02-09T03:33:52.086Z,87.88
2023-02-09T03:34:52.050Z,87.93
2023-02-09T03:35:52.100Z,87.93
2023-02-09T03:36:52.045Z,88.03
2023-02-09T03:37:52.059Z,88.24
2023-02-09T03:38:51.992Z,88.56
2023-02-09T03:39:52.006Z,88.52
2023-02-09T03:40:52.002Z,88.52
2023-02-09T03:41:52.005Z,88.41
2023-02-09T03:42:51.948Z,88.10
2023-02-09T03:43:51.966Z,88.13
2023-02-09T03:44:51.916Z,88.35
2023-02-09T03:45:51.934Z,88.52
2023-02-09T03:46:52.050Z,88.52
2023-02-09T03:47:51.924Z,88.31
2023-02-09T03:48:51.885Z,88.10
2023-02-09T03:49:51.910Z,88.03
2023-02-09T03:50:51.872Z,88.03
2023-02-09T03:51:51.865Z,88.13
2023-02-09T03:52:51.828Z,88.03
2023-02-09T03:53:51.840Z,88.03
2023-02-09T03:54:51.811Z,88.13
2023-02-09T03:55:51.809Z,88.45
2023-02-09T03:56:51.788Z,88.45
2023-02-09T03:57:51.785Z,88.45
2023-02-09T03:58:51.780Z,88.45
2023-02-09T03:59:51.747Z,88.45
2023-02-09T04:00:51.806Z,88.56
2023-02-09T04:01:51.737Z,88.56
2023-02-09T04:02:51.784Z,88.45
2023-02-09T04:03:51.719Z,88.35
2023-02-09T04:04:51.680Z,88.24
2023-02-09T04:05:51.680Z,88.24
2023-02-09T04:06:51.653Z,88.24
2023-02-09T04:07:51.683Z,88.35
2023-02-09T04:08:51.628Z,88.45
2023-02-09T04:09:51.625Z,88.31
2023-02-09T04:10:51.605Z,88.13
2023-02-09T04:11:51.617Z,87.93
2023-02-09T04:12:51.620Z,87.82
2023-02-09T04:13:51.596Z,87.82
2023-02-09T04:14:51.603Z,87.93
2023-02-09T04:15:51.602Z,87.93
2023-02-09T04:16:51.517Z,87.71
2023-02-09T04:17:51.562Z,87.50
2023-02-09T04:18:51.503Z,87.29
2023-02-09T04:19:51.516Z,87.08
2023-02-09T04:20:51.514Z,87.23
2023-02-09T04:21:51.469Z,87.33
2023-02-09T04:22:51.474Z,87.54
2023-02-09T04:23:51.430Z,87.48
2023-02-09T04:24:51.446Z,87.73
2023-02-09T04:25:51.429Z,87.94
2023-02-09T04:26:51.426Z,88.40
2023-02-09T04:27:51.403Z,88.93
2023-02-09T04:28:51.413Z,89.46
2023-02-09T04:29:51.369Z,89.88
2023-02-09T04:30:51.411Z,90.30
2023-02-09T04:31:51.388Z,90.69
2023-02-09T04:32:51.359Z,90.79
2023-02-09T04:33:51.331Z,90.69
2023-02-09T04:34:51.362Z,90.69
2023-02-09T04:35:51.299Z,90.69
2023-02-09T04:36:51.318Z,90.69
2023-02-09T04:37:51.277Z,90.75
2023-02-09T04:38:51.296Z,90.64
2023-02-09T04:39:51.272Z,90.54
2023-02-09T04:40:51.280Z,90.22
2023-02-09T04:41:51.229Z,89.79
2023-02-09T04:42:51.220Z,89.37
2023-02-09T04:43:51.187Z,89.06
2023-02-09T04:44:51.206Z,88.85
2023-02-09T04:45:51.305Z,88.64
2023-02-09T04:46:51.224Z,88.46
2023-02-09T04:47:51.140Z,88.36
2023-02-09T04:48:51.150Z,88.57
2023-02-09T04:49:51.121Z,88.82
2023-02-09T04:50:51.126Z,88.93
2023-02-09T04:51:51.121Z,89.14
2023-02-09T04:52:51.105Z,89.50
2023-02-09T04:53:51.060Z,90.03
2023-02-09T04:54:51.096Z,90.13
2023-02-09T04:55:51.053Z,90.23
2023-02-09T04:56:51.053Z,90.59
2023-02-09T04:57:51.031Z,91.08
2023-02-09T04:58:51.032Z,91.30
2023-02-09T04:59:51.003Z,91.50
2023-02-09T05:00:51.029Z,91.72
2023-02-09T05:01:50.984Z,91.67
2023-02-09T05:02:51.032Z,91.67
2023-02-09T05:03:50.990Z,91.46
2023-02-09T05:04:50.957Z,91.14
2023-02-09T05:05:50.921Z,91.04
2023-02-09T05:06:50.931Z,90.94
2023-02-09T05:07:50.893Z,90.94
2023-02-09T05:08:50.916Z,91.04
2023-02-09T05:09:50.880Z,90.94
2023-02-09T05:10:50.894Z,90.83
2023-02-09T05:11:50.853Z,90.72
2023-02-09T05:12:50.871Z,90.72
2023-02-09T05:13:50.829Z,90.62
2023-02-09T05:14:50.840Z,90.62
2023-02-09T05:15:50.806Z,90.62
2023-02-09T05:16:50.890Z,90.72
2023-02-09T05:17:50.793Z,90.72
2023-02-09T05:18:50.789Z,90.72
2023-02-09T05:19:50.749Z,90.72
2023-02-09T05:20:50.778Z,90.62
2023-02-09T05:21:50.717Z,90.62
2023-02-09T05:22:50.765Z,90.62
2023-02-09T05:23:50.696Z,90.62
2023-02-09T05:24:50.765Z,90.72
2023-02-09T05:25:50.671Z,90.58
2023-02-09T05:26:51.667Z,90.58
2023-02-09T05:27:50.705Z,90.58
2023-02-09T05:28:50.657Z,90.69
2023-02-09T05:29:50.629Z,90.79
2023-02-09T05:30:50.658Z,90.79
2023-02-09T05:31:50.676Z,90.69
2023-02-09T05:32:50.639Z,90.37
2023-02-09T05:33:50.569Z,89.94
2023-02-09T05:34:50.601Z,89.73
2023-02-09T05:35:50.565Z,89.42
2023-02-09T05:36:50.565Z,89.20
2023-02-09T05:37:50.556Z,89.00
2023-02-09T05:38:50.533Z,88.89
2023-02-09T05:39:50.505Z,89.00
2023-02-09T05:40:51.045Z,89.20
2023-02-09T05:41:50.498Z,89.31
2023-02-09T05:42:50.556Z,89.10
2023-02-09T05:43:50.469Z,88.89
2023-02-09T05:44:50.468Z,88.89
2023-02-09T05:45:50.526Z,89.00
2023-02-09T05:46:50.461Z,89.20
2023-02-09T05:47:50.408Z,89.63
2023-02-09T05:48:50.415Z,89.73
2023-02-09T05:49:50.380Z,89.73
2023-02-09T05:50:50.392Z,89.52
2023-02-09T05:51:50.373Z,89.20
2023-02-09T05:52:50.356Z,88.89
2023-02-09T05:53:50.314Z,88.78
2023-02-09T05:54:50.351Z,89.03
2023-02-09T05:55:50.305Z,89.25
2023-02-09T05:56:50.303Z,89.67
2023-02-09T05:57:50.290Z,89.88
2023-02-09T05:58:50.290Z,90.20
2023-02-09T05:59:50.294Z,90.30
2023-02-09T06:00:50.277Z,90.20
2023-02-09T06:01:50.268Z,90.20
2023-02-09T06:02:50.263Z,90.20
2023-02-09T06:03:50.209Z,90.09
2023-02-09T06:04:50.220Z,90.09
2023-02-09T06:05:50.170Z,90.09
2023-02-09T06:06:50.200Z,90.20
2023-02-09T06:07:50.149Z,90.30
2023-02-09T06:08:50.179Z,90.52
2023-02-09T06:09:50.132Z,90.72
2023-02-09T06:10:50.151Z,90.83
2023-02-09T06:11:50.118Z,90.94
2023-02-09T06:12:50.099Z,91.14
2023-02-09T06:13:50.079Z,91.25
2023-02-09T06:14:50.100Z,91.36
2023-02-09T06:15:50.079Z,91.31
2023-02-09T06:16:50.084Z,91.21
2023-02-09T06:17:50.028Z,91.21
2023-02-09T06:18:50.042Z,91.00
2023-02-09T06:19:50.016Z,90.69
2023-02-09T06:20:50.023Z,90.47
2023-02-09T06:21:49.979Z,90.26
2023-02-09T06:22:50.011Z,90.16
2023-02-09T06:23:49.945Z,89.94
2023-02-09T06:24:49.970Z,89.94
2023-02-09T06:25:49.959Z,89.84
2023-02-09T06:26:49.945Z,89.67
2023-02-09T06:27:50.067Z,89.56
2023-02-09T06:28:49.947Z,89.67
2023-02-09T06:29:49.880Z,89.67
2023-02-09T06:30:50.552Z,89.77
2023-02-09T06:31:50.019Z,89.77
2023-02-09T06:32:49.915Z,89.63
2023-02-09T06:33:49.835Z,89.52
2023-02-09T06:34:49.890Z,89.35
2023-02-09T06:35:52.234Z,89.14
2023-02-09T06:36:49.813Z,88.93
2023-02-09T06:37:49.787Z,89.07
2023-02-09T06:38:49.792Z,89.29
2023-02-09T06:39:49.790Z,89.50
2023-02-09T06:40:49.785Z,89.61
2023-02-09T06:41:49.753Z,89.81
2023-02-09T06:42:49.779Z,90.13
2023-02-09T06:43:49.725Z,90.23
2023-02-09T06:44:49.733Z,90.34
2023-02-09T06:45:49.703Z,90.34
2023-02-09T06:46:49.719Z,90.34
2023-02-09T06:47:49.676Z,90.34
2023-02-09T06:48:49.675Z,90.45
2023-02-09T06:49:49.670Z,90.23
2023-02-09T06:50:49.661Z,90.03
2023-02-09T06:51:49.646Z,89.92
2023-02-09T06:52:49.625Z,89.81
2023-02-09T06:53:49.581Z,89.92
2023-02-09T06:54:49.606Z,89.92
2023-02-09T06:55:49.568Z,90.09
2023-02-09T06:56:49.620Z,90.09
2023-02-09T06:57:49.532Z,90.20
2023-02-09T06:58:49.585Z,90.20
2023-02-09T06:59:49.540Z,90.20
2023-02-09T07:00:49.540Z,90.09
2023-02-09T07:01:49.533Z,89.77
2023-02-09T07:02:49.582Z,89.46
2023-02-09T07:03:49.459Z,89.14
2023-02-09T07:04:49.509Z,89.29
2023-02-09T07:05:49.438Z,89.50
2023-02-09T07:06:49.455Z,89.92
2023-02-09T07:07:49.415Z,90.20
2023-02-09T07:08:49.441Z,90.52
2023-02-09T07:09:49.422Z,90.83
2023-02-09T07:10:49.421Z,90.72
2023-02-09T07:11:49.344Z,90.52
2023-02-09T07:12:49.399Z,90.52
2023-02-09T07:13:49.330Z,90.62
2023-02-09T07:14:49.388Z,90.30
2023-02-09T07:15:49.408Z,89.98
2023-02-09T07:16:49.356Z,89.67
2023-02-09T07:17:49.288Z,89.67
2023-02-09T07:18:49.354Z,89.61
2023-02-09T07:19:49.323Z,89.71
2023-02-09T07:20:49.304Z,89.92
2023-02-09T07:21:49.266Z,90.13
2023-02-09T07:22:49.255Z,90.38
2023-02-09T07:23:49.216Z,90.59
2023-02-09T07:24:49.250Z,90.81
2023-02-09T07:25:49.217Z,91.13
2023-02-09T07:26:49.213Z,91.23
2023-02-09T07:27:49.196Z,91.33
2023-02-09T07:28:49.179Z,91.44
2023-02-09T07:29:49.139Z,91.44
2023-02-09T07:30:49.409Z,91.61
2023-02-09T07:31:49.183Z,91.82
2023-02-09T07:32:49.144Z,91.82
2023-02-09T07:33:49.127Z,91.78
2023-02-09T07:34:49.114Z,91.67
2023-02-09T07:35:49.088Z,91.67
2023-02-09T07:36:49.079Z,91.42
2023-02-09T07:37:49.057Z,91.31
2023-02-09T07:38:49.048Z,91.28
2023-02-09T07:39:49.013Z,91.28
2023-02-09T07:40:49.030Z,91.34
2023-02-09T07:41:49.010Z,91.24
2023-02-09T07:42:49.001Z,90.77
2023-02-09T07:43:48.974Z,90.14
2023-02-09T07:44:48.985Z,89.51
2023-02-09T07:45:48.937Z,88.98
2023-02-09T07:46:49.028Z,88.62
2023-02-09T07:47:48.939Z,88.20
2023-02-09T07:48:48.921Z,87.78
2023-02-09T07:49:48.947Z,87.36
2023-02-09T07:50:48.902Z,87.25
2023-02-09T07:51:48.894Z,87.46
2023-02-09T07:52:48.880Z,87.57
2023-02-09T07:53:48.865Z,87.57
2023-02-09T07:54:48.848Z,87.68
2023-02-09T07:55:48.883Z,87.68
2023-02-09T07:56:48.880Z,87.78
2023-02-09T07:57:48.802Z,88.10
2023-02-09T07:58:48.783Z,88.31
2023-02-09T07:59:48.751Z,88.20
2023-02-09T08:00:49.271Z,87.99
2023-02-09T08:01:48.822Z,87.99
2023-02-09T08:02:48.754Z,87.99
2023-02-09T08:03:48.710Z,88.20
2023-02-09T08:04:48.826Z,88.41
2023-02-09T08:05:48.994Z,88.41
2023-02-09T08:06:48.697Z,88.58
2023-02-09T08:07:48.688Z,88.69
2023-02-09T08:08:48.724Z,88.69
2023-02-09T08:09:48.632Z,88.33
2023-02-09T08:10:48.643Z,88.23
2023-02-09T08:11:48.681Z,87.81
2023-02-09T08:12:48.607Z,87.55
2023-02-09T08:13:48.657Z,87.24
2023-02-09T08:14:48.671Z,87.03
2023-02-09T08:15:48.960Z,86.71
2023-02-09T08:16:48.579Z,86.51
2023-02-09T08:17:48.543Z,86.29
2023-02-09T08:18:48.552Z,86.29
2023-02-09T08:19:48.522Z,86.40
2023-02-09T08:20:48.495Z,86.71
2023-02-09T08:21:48.481Z,86.82
2023-02-09T08:22:48.491Z,86.82
2023-02-09T08:23:48.500Z,86.88
2023-02-09T08:24:48.476Z,86.99
2023-02-09T08:25:48.787Z,86.78
2023-02-09T08:26:48.443Z,86.68
2023-02-09T08:27:48.421Z,86.57
2023-02-09T08:28:48.499Z,86.57
2023-02-09T08:29:49.130Z,86.57
2023-02-09T08:30:48.456Z,86.99
2023-02-09T08:31:48.408Z,87.27
2023-02-09T08:32:48.352Z,86.95
2023-02-09T08:33:48.330Z,86.95
2023-02-09T08:34:48.337Z,87.05
2023-02-09T08:35:48.747Z,86.95
2023-02-09T08:36:48.322Z,86.74
2023-02-09T08:37:48.294Z,86.70
2023-02-09T08:38:48.326Z,86.70
2023-02-09T08:39:48.284Z,86.70
2023-02-09T08:40:48.232Z,86.70
2023-02-09T08:41:48.273Z,86.60
2023-02-09T08:42:48.197Z,86.77
2023-02-09T08:43:48.193Z,86.77
2023-02-09T08:44:48.190Z,86.55
2023-02-09T08:45:48.894Z,86.35
2023-02-09T08:46:48.414Z,85.78
2023-02-09T08:47:48.171Z,85.47
2023-02-09T08:48:48.152Z,84.38
2023-02-09T08:49:48.178Z,83.75
2023-02-09T08:50:48.119Z,83.40
2023-02-09T08:51:48.120Z,82.76
2023-02-09T08:52:48.072Z,82.14
2023-02-09T08:53:48.105Z,81.72
2023-02-09T08:54:48.088Z,81.30
2023-02-09T08:55:48.673Z,81.26
2023-02-09T08:56:48.048Z,81.37
2023-02-09T08:57:48.038Z,81.47
2023-02-09T08:58:48.002Z,81.43
2023-02-09T08:59:48.055Z,81.82
2023-02-09T09:00:48.055Z,81.82
2023-02-09T09:01:48.056Z,81.26
2023-02-09T09:02:47.972Z,80.52
2023-02-09T09:03:48.090Z,79.86
2023-02-09T09:04:47.925Z,78.77
2023-02-09T09:05:48.209Z,78.04
2023-02-09T09:06:47.943Z,77.73
2023-02-09T09:07:47.924Z,78.15
2023-02-09T09:08:47.882Z,78.60
2023-02-09T09:09:47.916Z,77.62
2023-02-09T09:10:47.849Z,76.44
2023-02-09T09:11:47.874Z,75.78
2023-02-09T09:12:47.827Z,75.12
2023-02-09T09:13:47.838Z,74.38
2023-02-09T09:14:47.841Z,73.34
2023-02-09T09:15:48.228Z,73.03
2023-02-09T09:16:47.809Z,72.92
2023-02-09T09:17:47.785Z,73.03
2023-02-09T09:18:47.790Z,73.86
2023-02-09T09:19:47.762Z,74.04
2023-02-09T09:20:47.719Z,73.69
2023-02-09T09:21:47.730Z,72.58
2023-02-09T09:22:47.706Z,72.47
2023-02-09T09:23:47.733Z,72.58
2023-02-09T09:24:47.660Z,72.47
2023-02-09T09:25:48.036Z,73.90
2023-02-09T09:26:47.650Z,73.38
2023-02-09T09:27:47.659Z,72.55
2023-02-09T09:28:47.626Z,72.30
2023-02-09T09:29:47.661Z,70.84
2023-02-09T09:30:47.606Z,70.01
2023-02-09T09:31:47.627Z,70.53
2023-02-09T09:32:47.611Z,70.78
2023-02-09T09:33:47.585Z,71.30
2023-02-09T09:34:47.531Z,71.61
2023-02-09T09:35:47.935Z,71.99
2023-02-09T09:36:47.512Z,71.26
2023-02-09T09:37:47.537Z,70.74
2023-02-09T09:38:47.508Z,70.22
2023-02-09T09:39:47.503Z,70.36
2023-02-09T09:40:47.467Z,70.39
2023-02-09T09:41:47.487Z,71.22
2023-02-09T09:42:47.451Z,71.98
2023-02-09T09:43:47.446Z,72.47
2023-02-09T09:44:47.549Z,72.89
2023-02-09T09:45:47.853Z,72.47
2023-02-09T09:46:47.378Z,72.68
2023-02-09T09:47:47.418Z,72.96
2023-02-09T09:48:47.376Z,72.02
2023-02-09T09:49:47.413Z,71.61
2023-02-09T09:50:47.365Z,71.58
2023-02-09T09:51:47.362Z,71.75
2023-02-09T09:52:47.299Z,71.20
2023-02-09T09:53:47.344Z,69.53
2023-02-09T09:54:47.285Z,69.12
2023-02-09T09:55:47.651Z,69.53
2023-02-09T09:56:47.256Z,69.46
2023-02-09T09:57:47.261Z,70.89
2023-02-09T09:58:47.253Z,70.02
2023-02-09T09:59:47.235Z,69.19
2023-02-09T10:00:47.207Z,69.05
2023-02-09T10:01:47.206Z,69.54
2023-02-09T10:02:47.160Z,67.64
2023-02-09T10:03:47.206Z,67.71
2023-02-09T10:04:47.174Z,66.47
2023-02-09T10:05:47.581Z,66.25
2023-02-09T10:06:47.116Z,66.67
2023-02-09T10:07:47.157Z,65.78
2023-02-09T10:08:47.118Z,65.06
2023-02-09T10:09:47.110Z,65.03
2023-02-09T10:10:47.349Z,65.23
2023-02-09T10:11:47.066Z,64.72
2023-02-09T10:12:47.034Z,64.20
2023-02-09T10:13:47.077Z,63.81
2023-02-09T10:14:47.011Z,64.46
2023-02-09T10:15:47.382Z,65.01
2023-02-09T10:16:47.060Z,66.28
2023-02-09T10:17:46.991Z,66.15
2023-02-09T10:18:46.972Z,64.95
2023-02-09T10:19:46.955Z,63.99
2023-02-09T10:20:46.938Z,63.68
2023-02-09T10:21:46.935Z,64.09
2023-02-09T10:22:46.899Z,64.02
2023-02-09T10:23:46.913Z,64.43
2023-02-09T10:24:46.893Z,64.87
2023-02-09T10:25:47.262Z,65.08
2023-02-09T10:26:46.853Z,65.84
2023-02-09T10:27:46.855Z,65.66
2023-02-09T10:28:46.853Z,66.08
2023-02-09T10:29:46.847Z,66.77
2023-02-09T10:30:46.970Z,68.04
2023-02-09T10:31:47.002Z,68.80
2023-02-09T10:32:46.758Z,69.74
2023-02-09T10:33:46.848Z,70.09
2023-02-09T10:34:46.764Z,70.40
2023-02-09T10:35:47.165Z,70.92
2023-02-09T10:36:46.717Z,71.12
2023-02-09T10:37:46.729Z,70.92
2023-02-09T10:38:46.679Z,70.95
2023-02-09T10:39:46.735Z,72.13
2023-02-09T10:40:46.683Z,72.96
2023-02-09T10:41:46.682Z,73.07
2023-02-09T10:42:46.621Z,73.38
2023-02-09T10:43:46.661Z,73.90
2023-02-09T10:44:46.631Z,73.62
2023-02-09T10:45:46.973Z,73.52
2023-02-09T10:46:46.600Z,73.86
2023-02-09T10:47:46.592Z,74.49
2023-02-09T10:48:46.562Z,75.43
2023-02-09T10:49:46.598Z,75.63
2023-02-09T10:50:46.552Z,75.18
2023-02-09T10:51:46.552Z,74.46
2023-02-09T10:52:46.488Z,74.52
2023-02-09T10:53:46.530Z,74.84
2023-02-09T10:54:46.486Z,74.52
2023-02-09T10:55:46.835Z,74.21
2023-02-09T10:56:46.479Z,74.32
2023-02-09T10:57:46.485Z,73.55
2023-02-09T10:58:46.414Z,73.14
2023-02-09T10:59:46.431Z,73.14
2023-02-09T11:00:46.445Z,72.93
2023-02-09T11:01:46.443Z,72.58
2023-02-09T11:02:46.377Z,72.38
2023-02-09T11:03:46.402Z,73.00
2023-02-09T11:04:46.403Z,72.38
2023-02-09T11:05:46.667Z,72.62
2023-02-09T11:06:46.429Z,73.14
2023-02-09T11:07:46.340Z,73.66
2023-02-09T11:08:46.335Z,73.55
2023-02-09T11:09:46.308Z,73.49
2023-02-09T11:10:46.272Z,73.80
2023-02-09T11:11:46.293Z,74.11
2023-02-09T11:12:46.291Z,74.66
2023-02-09T11:13:46.249Z,74.98
2023-02-09T11:14:46.203Z,75.46
2023-02-09T11:15:46.581Z,74.63
2023-02-09T11:16:46.294Z,74.01
2023-02-09T11:17:46.202Z,73.49
2023-02-09T11:18:46.197Z,73.07
2023-02-09T11:19:46.169Z,73.27
2023-02-09T11:20:46.149Z,73.83
2023-02-09T11:21:46.195Z,74.42
2023-02-09T11:22:46.117Z,73.86
2023-02-09T11:23:46.143Z,72.93
2023-02-09T11:24:46.088Z,72.69
2023-02-09T11:25:46.566Z,72.58
2023-02-09T11:26:46.073Z,72.38
2023-02-09T11:27:46.067Z,72.69
2023-02-09T11:28:46.024Z,73.21
2023-02-09T11:29:46.070Z,73.28
2023-02-09T11:30:46.534Z,72.66
2023-02-09T11:31:46.197Z,72.24
2023-02-09T11:32:46.004Z,72.45
2023-02-09T11:33:45.986Z,72.86
2023-02-09T11:34:45.963Z,72.66
2023-02-09T11:35:45.979Z,72.66
2023-02-09T11:36:45.921Z,72.76
2023-02-09T11:37:45.936Z,72.62
2023-02-09T11:38:45.901Z,72.20
2023-02-09T11:39:45.930Z,71.69
2023-02-09T11:40:46.301Z,71.48
2023-02-09T11:41:45.899Z,71.27
2023-02-09T11:42:45.868Z,71.89
2023-02-09T11:43:45.885Z,71.17
2023-02-09T11:44:45.811Z,71.03
2023-02-09T11:45:45.837Z,71.23
2023-02-09T11:46:45.890Z,71.23
2023-02-09T11:47:45.811Z,71.65
2023-02-09T11:48:45.781Z,71.69
2023-02-09T11:49:45.778Z,72.00
2023-02-09T11:50:46.165Z,72.20
2023-02-09T11:51:45.789Z,72.31
2023-02-09T11:52:45.765Z,71.58
2023-02-09T11:53:45.746Z,71.69
2023-02-09T11:54:45.693Z,72.00
2023-02-09T11:55:45.702Z,72.62
2023-02-09T11:56:45.700Z,72.62
2023-02-09T11:57:45.701Z,72.20
2023-02-09T11:58:45.679Z,72.10
2023-02-09T11:59:45.648Z,72.62
2023-02-09T12:00:55.956Z,72.31
2023-02-09T12:01:45.638Z,72.38
2023-02-09T12:02:45.663Z,71.44
2023-02-09T12:03:45.614Z,71.44
2023-02-09T12:04:45.574Z,71.13
2023-02-09T12:05:45.574Z,71.37
2023-02-09T12:06:45.580Z,71.27
2023-02-09T12:07:45.566Z,71.69
2023-02-09T12:08:45.533Z,72.00
2023-02-09T12:09:45.523Z,72.10
2023-02-09T12:10:45.669Z,71.92
2023-02-09T12:11:45.490Z,72.13
2023-02-09T12:12:45.469Z,72.76
2023-02-09T12:13:45.473Z,72.76
2023-02-09T12:14:45.472Z,72.55
2023-02-09T12:15:45.506Z,72.55
2023-02-09T12:16:45.405Z,72.52
2023-02-09T12:17:45.428Z,72.31
2023-02-09T12:18:45.428Z,72.00
2023-02-09T12:19:45.441Z,72.00
2023-02-09T12:20:45.689Z,72.20
2023-02-09T12:21:45.381Z,72.20
2023-02-09T12:22:45.334Z,72.49
2023-02-09T12:23:45.347Z,71.97
2023-02-09T12:24:45.305Z,71.55
2023-02-09T12:25:45.346Z,71.86
2023-02-09T12:26:45.295Z,72.03
2023-02-09T12:27:45.283Z,71.83
2023-02-09T12:28:45.261Z,71.83
2023-02-09T12:29:45.261Z,71.07
2023-02-09T12:30:45.586Z,70.65
2023-02-09T12:31:46.446Z,70.54
2023-02-09T12:32:45.193Z,70.27
2023-02-09T12:33:45.215Z,70.68
2023-02-09T12:34:45.176Z,70.89
2023-02-09T12:35:45.193Z,71.00
2023-02-09T12:36:45.157Z,70.89
2023-02-09T12:37:45.197Z,70.79
2023-02-09T12:38:49.321Z,71.00
2023-02-09T12:39:45.143Z,70.97
2023-02-09T12:40:45.406Z,70.75
2023-02-09T12:41:45.163Z,70.54
2023-02-09T12:42:45.052Z,70.44
2023-02-09T12:43:45.144Z,70.27
2023-02-09T12:44:45.033Z,70.37
2023-02-09T12:45:45.592Z,70.89
2023-02-09T12:46:45.212Z,70.75
2023-02-09T12:47:45.030Z,71.07
2023-02-09T12:48:44.992Z,70.44
2023-02-09T12:49:45.006Z,70.54
2023-02-09T12:50:44.976Z,70.23
2023-02-09T12:51:44.971Z,69.92
2023-02-09T12:52:44.990Z,69.30
2023-02-09T12:53:44.925Z,69.30
2023-02-09T12:54:44.937Z,68.99
2023-02-09T12:55:45.384Z,69.30
2023-02-09T12:56:44.907Z,68.26